Time;durP1;ratioP1;P1;durP2;ratioP2;P2;SDS_P1;SDS_P2;PMS_P1;PMS_P2;Temp;Humidity;BMP_temperature;BMP_pressure;BME280_temperature;BME280_humidity;BME280_pressure;Samples;Min_cycle;Max_cycle;Signal;HPM_P1;HPM_P2
2021/12/26 00:00:59;;;;;;;2.50;1.83;;;-1.10;99.10;;;;;;5075843;28;20106;-80
2021/12/26 00:03:25;;;;;;;4.13;1.52;;;-1.10;99.10;;;;;;5093897;28;20585;-81
2021/12/26 00:05:52;;;;;;;3.60;1.50;;;-1.10;99.10;;;;;;5075711;28;20021;-79
2021/12/26 00:08:19;;;;;;;1.20;1.10;;;-1.10;99.10;;;;;;5075626;28;20039;-81
2021/12/26 00:10:47;;;;;;;2.55;1.63;;;-1.00;99.20;;;;;;5075490;28;20023;-80
2021/12/26 00:13:13;;;;;;;3.05;1.60;;;-1.10;98.90;;;;;;5093948;28;20047;-80
2021/12/26 00:15:38;;;;;;;2.30;1.50;;;-1.10;98.90;;;;;;5093571;28;20052;-80
2021/12/26 00:18:04;;;;;;;2.38;1.67;;;-1.10;98.70;;;;;;5093035;28;20160;-79
2021/12/26 00:20:30;;;;;;;1.75;1.58;;;-1.10;98.70;;;;;;5093183;28;20028;-80
2021/12/26 00:22:56;;;;;;;4.25;1.98;;;-1.10;98.80;;;;;;5075285;28;20065;-81
2021/12/26 00:25:22;;;;;;;5.45;1.67;;;-1.10;98.50;;;;;;5075105;28;20040;-80
2021/12/26 00:27:47;;;;;;;1.80;1.60;;;-1.10;98.60;;;;;;5075277;28;20115;-80
2021/12/26 00:30:17;;;;;;;1.73;1.30;;;-1.20;98.60;;;;;;5093249;28;20020;-81
2021/12/26 00:32:43;;;;;;;4.70;2.03;;;-1.10;98.60;;;;;;5075218;28;20024;-81
2021/12/26 00:35:11;;;;;;;3.20;1.70;;;-1.10;98.60;;;;;;5075501;28;20026;-81
2021/12/26 00:37:37;;;;;;;3.50;1.55;;;-1.10;98.60;;;;;;5093322;28;20028;-81
2021/12/26 00:40:05;;;;;;;1.42;1.33;;;-1.20;98.50;;;;;;5093441;28;20031;-82
2021/12/26 00:42:30;;;;;;;2.47;1.70;;;-1.20;98.50;;;;;;5093082;28;20535;-80
2021/12/26 00:44:56;;;;;;;1.55;1.10;;;-1.20;98.50;;;;;;5075254;28;20107;-80
2021/12/26 00:47:22;;;;;;;2.45;1.50;;;-1.20;98.50;;;;;;5075373;28;20486;-80
2021/12/26 00:49:48;;;;;;;4.47;1.63;;;-1.10;98.50;;;;;;5093470;28;20035;-81
2021/12/26 00:52:14;;;;;;;2.08;1.20;;;-1.20;98.50;;;;;;5075150;28;20046;-81
2021/12/26 00:54:39;;;;;;;2.80;1.25;;;-1.20;98.50;;;;;;5078675;28;20020;-81
2021/12/26 00:57:05;;;;;;;1.40;1.30;;;-1.20;98.60;;;;;;5079172;28;20141;-81
2021/12/26 00:59:31;;;;;;;2.72;1.40;;;-1.20;98.60;;;;;;5079202;28;20069;-81
2021/12/26 01:01:57;;;;;;;1.85;1.30;;;-1.30;98.50;;;;;;5079630;28;20364;-81
2021/12/26 01:04:24;;;;;;;2.30;1.70;;;-1.20;98.60;;;;;;5079581;28;20016;-81
2021/12/26 01:06:51;;;;;;;2.63;1.50;;;-1.30;98.60;;;;;;5098357;28;20024;-79
2021/12/26 01:09:22;;;;;;;4.40;2.00;;;-1.20;98.60;;;;;;5079635;28;20052;-80
2021/12/26 01:11:52;;;;;;;;;;;-1.20;98.40;;;;;;5080322;28;20452;-81
2021/12/26 01:14:26;;;;;;;3.10;1.42;;;-1.30;98.30;;;;;;5098697;28;19957;-80
2021/12/26 01:17:01;;;;;;;1.80;1.17;;;-1.20;98.30;;;;;;5098081;28;20016;-81
2021/12/26 01:19:33;;;;;;;2.22;1.20;;;-1.20;98.40;;;;;;5079650;28;20073;-81
2021/12/26 01:21:58;;;;;;;2.33;1.40;;;-1.20;98.40;;;;;;5079531;28;20144;-80
2021/12/26 01:24:24;;;;;;;1.85;1.30;;;-1.20;98.30;;;;;;5096844;28;20054;-80
2021/12/26 01:26:51;;;;;;;2.60;1.60;;;-1.20;98.30;;;;;;5079306;28;20077;-81
2021/12/26 01:29:16;;;;;;;2.78;1.40;;;-1.30;98.20;;;;;;5079422;28;20112;-81
2021/12/26 01:31:42;;;;;;;3.22;1.70;;;-1.30;98.20;;;;;;5080655;28;20088;-80
2021/12/26 01:34:09;;;;;;;3.40;1.58;;;-1.20;98.20;;;;;;5082190;28;20518;-80
2021/12/26 01:36:36;;;;;;;2.03;1.55;;;-1.20;98.20;;;;;;5081055;28;20403;-80
2021/12/26 01:39:07;;;;;;;1.73;1.23;;;-1.30;98.20;;;;;;5080979;28;20032;-80
2021/12/26 01:41:38;;;;;;;2.47;1.48;;;-1.20;98.30;;;;;;5082879;28;20041;-80
2021/12/26 01:44:08;;;;;;;2.40;1.52;;;-1.20;98.20;;;;;;5084534;28;20020;-80
2021/12/26 01:46:34;;;;;;;2.80;1.52;;;-1.20;98.20;;;;;;5086479;28;20028;-80
2021/12/26 01:49:01;;;;;;;2.08;1.30;;;-1.20;98.20;;;;;;5084755;28;20030;-81
2021/12/26 01:51:27;;;;;;;1.40;1.08;;;-1.20;98.20;;;;;;5081017;28;20380;-81
2021/12/26 01:53:53;;;;;;;1.83;1.30;;;-1.20;98.20;;;;;;5079312;28;20016;-79
2021/12/26 01:56:18;;;;;;;3.65;1.40;;;-1.20;98.20;;;;;;5078843;28;20028;-80
2021/12/26 01:58:44;;;;;;;3.03;1.40;;;-1.20;98.10;;;;;;5078778;28;20148;-81
2021/12/26 02:01:12;;;;;;;3.30;1.50;;;-1.20;98.10;;;;;;5096328;28;20027;-80
2021/12/26 02:03:39;;;;;;;1.35;1.23;;;-1.20;98.00;;;;;;5078338;28;20065;-80
2021/12/26 02:06:08;;;;;;;3.20;1.90;;;-1.20;97.80;;;;;;5095164;28;20032;-80
2021/12/26 02:08:34;;;;;;;4.03;1.30;;;-1.20;97.70;;;;;;5078774;28;20139;-81
2021/12/26 02:11:02;;;;;;;2.53;1.55;;;-1.20;97.70;;;;;;5078461;28;20031;-80
2021/12/26 02:13:29;;;;;;;3.45;1.65;;;-1.20;97.70;;;;;;5077968;28;20474;-81
2021/12/26 02:15:56;;;;;;;1.83;1.30;;;-1.20;97.70;;;;;;5077916;28;20032;-77
2021/12/26 02:18:22;;;;;;;2.08;1.38;;;-1.30;97.60;;;;;;5096711;28;20028;-80
2021/12/26 02:23:24;;;;;;;2.22;1.40;;;-1.30;97.60;;;;;;5117329;28;20028;-80
2021/12/26 02:28:34;;;;;;;1.92;1.50;;;-1.40;97.60;;;;;;5116401;28;20073;-80
2021/12/26 02:31:00;;;;;;;2.22;1.40;;;-1.40;97.70;;;;;;5081085;28;20020;-80
2021/12/26 02:33:26;;;;;;;2.40;1.42;;;-1.40;97.80;;;;;;5078166;28;20022;-80
2021/12/26 02:35:53;;;;;;;2.40;1.38;;;-1.40;97.80;;;;;;5077362;28;20107;-81
2021/12/26 02:38:19;;;;;;;1.77;1.30;;;-1.30;97.80;;;;;;5095374;28;20028;-80
2021/12/26 02:40:47;;;;;;;1.85;1.40;;;-1.30;97.80;;;;;;5095050;28;20023;-81
2021/12/26 02:43:15;;;;;;;2.22;1.15;;;-1.30;97.70;;;;;;5077131;28;20017;-81
2021/12/26 02:45:41;;;;;;;1.38;1.27;;;-1.30;97.80;;;;;;5077431;28;20036;-81
2021/12/26 02:48:08;;;;;;;2.97;1.55;;;-1.30;97.70;;;;;;5076702;28;20072;-81
2021/12/26 02:50:34;;;;;;;2.20;1.13;;;-1.30;97.70;;;;;;5096125;28;20052;-81
2021/12/26 02:53:04;;;;;;;3.00;1.52;;;-1.30;97.60;;;;;;5077107;28;20066;-79
2021/12/26 02:55:30;;;;;;;3.08;1.80;;;-1.40;97.60;;;;;;5076976;28;20024;-80
2021/12/26 02:58:02;;;;;;;2.35;1.42;;;-1.40;97.50;;;;;;5095045;28;20038;-80
2021/12/26 03:00:32;;;;;;;1.33;1.20;;;-1.40;97.50;;;;;;5077669;28;20016;-80
2021/12/26 03:03:02;;;;;;;2.65;1.58;;;-1.40;97.50;;;;;;5076958;28;20027;-79
2021/12/26 03:05:30;;;;;;;1.85;1.50;;;-1.40;97.50;;;;;;5095082;28;20020;-80
2021/12/26 03:07:56;;;;;;;1.95;1.50;;;-1.40;97.50;;;;;;5094808;28;20547;-80
2021/12/26 03:10:25;;;;;;;2.33;1.67;;;-1.40;97.50;;;;;;5094831;28;20464;-80
2021/12/26 03:13:00;;;;;;;3.13;1.58;;;-1.40;97.30;;;;;;5076439;28;20021;-81
2021/12/26 03:15:28;;;;;;;1.85;1.35;;;-1.40;97.30;;;;;;5094437;28;20032;-80
2021/12/26 03:17:55;;;;;;;3.88;1.40;;;-1.40;97.20;;;;;;5076732;28;20031;-80
2021/12/26 03:20:24;;;;;;;2.15;1.17;;;-1.40;97.20;;;;;;5076453;28;20039;-81
2021/12/26 03:22:50;;;;;;;2.45;1.48;;;-1.40;97.20;;;;;;5077112;28;20024;-81
2021/12/26 03:25:21;;;;;;;2.25;1.40;;;-1.40;97.10;;;;;;5094903;28;20436;-81
2021/12/26 03:27:47;;;;;;;3.17;1.70;;;-1.40;97.20;;;;;;5076187;28;20032;-81
2021/12/26 03:30:17;;;;;;;3.10;1.77;;;-1.40;97.10;;;;;;5094364;28;20106;-81
2021/12/26 03:32:43;;;;;;;2.88;1.40;;;-1.40;97.10;;;;;;5076446;28;20031;-81
2021/12/26 03:35:10;;;;;;;3.63;1.60;;;-1.40;97.00;;;;;;5094362;28;20020;-81
2021/12/26 03:37:37;;;;;;;1.20;1.10;;;-1.40;97.00;;;;;;5076663;28;20024;-81
2021/12/26 03:40:04;;;;;;;2.17;1.20;;;-1.40;97.00;;;;;;5094707;28;20551;-81
2021/12/26 03:42:31;;;;;;;3.08;1.60;;;-1.50;96.90;;;;;;5076628;28;20073;-81
2021/12/26 03:44:57;;;;;;;1.42;1.33;;;-1.40;96.90;;;;;;5076192;28;20028;-80
2021/12/26 03:47:24;;;;;;;2.13;1.27;;;-1.50;96.90;;;;;;5094783;28;20034;-80
2021/12/26 03:49:52;;;;;;;3.50;1.45;;;-1.50;96.90;;;;;;5094374;28;20034;-80
2021/12/26 03:52:18;;;;;;;2.50;1.52;;;-1.50;96.70;;;;;;5095245;28;20023;-80
2021/12/26 03:54:44;;;;;;;3.65;1.70;;;-1.50;96.60;;;;;;5094018;28;20017;-80
2021/12/26 03:57:10;;;;;;;1.92;1.40;;;-1.50;96.60;;;;;;5076749;28;20562;-80
2021/12/26 03:59:35;;;;;;;2.53;1.50;;;-1.50;96.60;;;;;;5075957;28;20392;-80
2021/12/26 04:02:01;;;;;;;1.65;1.33;;;-1.50;96.50;;;;;;5094237;28;20081;-81
2021/12/26 04:04:27;;;;;;;1.30;1.20;;;-1.50;96.50;;;;;;5094234;28;20324;-80
2021/12/26 04:06:53;;;;;;;2.75;1.67;;;-1.50;96.50;;;;;;5076641;28;20020;-81
2021/12/26 04:09:18;;;;;;;2.45;1.52;;;-1.50;96.60;;;;;;5076076;28;20090;-80
2021/12/26 04:11:46;;;;;;;1.85;1.27;;;-1.50;96.50;;;;;;5094737;28;20052;-81
2021/12/26 04:14:13;;;;;;;3.22;1.40;;;-1.50;96.50;;;;;;5094211;28;20020;-80
2021/12/26 04:16:39;;;;;;;4.35;1.20;;;-1.50;96.50;;;;;;5093472;28;20101;-80
2021/12/26 04:19:05;;;;;;;2.25;1.58;;;-1.50;96.50;;;;;;5075991;28;20361;-81
2021/12/26 04:21:31;;;;;;;1.90;1.30;;;-1.50;96.50;;;;;;5076151;28;20080;-80
2021/12/26 04:23:57;;;;;;;3.53;1.65;;;-1.40;96.50;;;;;;5096816;28;20099;-81
2021/12/26 04:26:23;;;;;;;2.25;1.60;;;-1.50;96.50;;;;;;5112010;28;20115;-80
2021/12/26 04:28:49;;;;;;;2.30;1.20;;;-1.50;96.40;;;;;;5084397;28;20506;-80
2021/12/26 04:31:15;;;;;;;2.40;1.13;;;-1.50;96.40;;;;;;5089195;28;20024;-79
2021/12/26 04:33:41;;;;;;;1.02;1.00;;;-1.50;96.40;;;;;;5110321;28;20016;-81
2021/12/26 04:36:07;;;;;;;1.58;1.20;;;-1.50;96.40;;;;;;5077916;28;20028;-79
2021/12/26 04:38:33;;;;;;;1.83;1.30;;;-1.40;96.40;;;;;;5076096;28;20028;-81
2021/12/26 04:41:00;;;;;;;2.08;1.23;;;-1.50;96.30;;;;;;5075467;28;20024;-81
2021/12/26 04:43:26;;;;;;;2.33;1.10;;;-1.50;96.20;;;;;;5075708;28;20020;-81
2021/12/26 04:45:53;;;;;;;7.43;1.65;;;-1.50;96.20;;;;;;5075137;28;20039;-80
2021/12/26 04:48:18;;;;;;;1.67;1.23;;;-1.50;96.20;;;;;;5075603;28;20024;-80
2021/12/26 04:50:44;;;;;;;1.90;1.05;;;-1.50;96.20;;;;;;5093597;28;20016;-80
2021/12/26 04:53:10;;;;;;;4.53;1.50;;;-1.50;96.20;;;;;;5075225;28;20101;-80
2021/12/26 04:55:36;;;;;;;2.83;1.50;;;-1.50;96.00;;;;;;5075355;28;20061;-80
2021/12/26 04:58:03;;;;;;;2.47;1.50;;;-1.60;96.00;;;;;;5075472;28;20031;-81
2021/12/26 05:00:30;;;;;;;1.30;1.20;;;-1.60;95.90;;;;;;5075483;28;20527;-80
2021/12/26 05:02:58;;;;;;;1.88;1.38;;;-1.60;95.80;;;;;;5075977;28;20028;-80
2021/12/26 05:05:26;;;;;;;2.22;1.40;;;-1.60;95.80;;;;;;5074855;28;20112;-80
2021/12/26 05:07:53;;;;;;;2.67;1.38;;;-1.60;95.80;;;;;;5093914;28;20427;-80
2021/12/26 05:10:20;;;;;;;2.05;1.38;;;-1.50;95.80;;;;;;5074876;28;20047;-80
2021/12/26 05:12:46;;;;;;;2.78;1.35;;;-1.60;95.70;;;;;;5093547;28;20106;-81
2021/12/26 05:15:15;;;;;;;2.95;1.42;;;-1.60;95.70;;;;;;5074861;28;20120;-80
2021/12/26 05:17:40;;;;;;;1.63;1.33;;;-1.60;95.60;;;;;;5074799;28;20054;-80
2021/12/26 05:20:08;;;;;;;1.40;1.30;;;-1.60;95.60;;;;;;5075122;28;20028;-79
2021/12/26 05:22:34;;;;;;;2.15;1.40;;;-1.60;95.50;;;;;;5074760;28;20042;-79
2021/12/26 05:25:00;;;;;;;1.92;1.33;;;-1.60;95.40;;;;;;5075359;28;20473;-79
2021/12/26 05:27:25;;;;;;;2.25;1.42;;;-1.60;95.40;;;;;;5075220;28;20120;-80
2021/12/26 05:29:51;;;;;;;2.30;1.08;;;-1.60;95.40;;;;;;5075001;28;20118;-80
2021/12/26 05:32:17;;;;;;;2.17;1.27;;;-1.50;95.40;;;;;;5092877;28;20031;-79
2021/12/26 05:34:43;;;;;;;2.60;1.63;;;-1.50;95.20;;;;;;5075707;28;20052;-80
2021/12/26 05:37:09;;;;;;;2.80;1.30;;;-1.60;95.00;;;;;;5074951;28;20027;-80
2021/12/26 05:39:34;;;;;;;2.53;1.45;;;-1.60;94.90;;;;;;5076684;28;20024;-80
2021/12/26 05:42:00;;;;;;;2.15;1.30;;;-1.60;94.90;;;;;;5078534;28;20102;-79
2021/12/26 05:44:26;;;;;;;2.38;1.45;;;-1.60;94.90;;;;;;5078402;28;20392;-80
2021/12/26 05:46:52;;;;;;;1.90;1.42;;;-1.60;94.80;;;;;;5096717;28;20024;-80
2021/12/26 05:49:17;;;;;;;1.98;1.33;;;-1.60;94.60;;;;;;5096305;28;20563;-80
2021/12/26 05:51:43;;;;;;;1.60;1.25;;;-1.60;94.60;;;;;;5078427;28;20024;-80
2021/12/26 05:54:09;;;;;;;1.30;1.20;;;-1.60;94.60;;;;;;5078479;28;20046;-80
2021/12/26 05:56:35;;;;;;;2.28;1.65;;;-1.60;94.50;;;;;;5078152;28;20065;-81
2021/12/26 05:59:02;;;;;;;1.85;1.13;;;-1.50;94.50;;;;;;5078912;28;20466;-80
2021/12/26 06:01:27;;;;;;;1.70;1.27;;;-1.50;94.40;;;;;;5078983;28;20020;-78
2021/12/26 06:03:53;;;;;;;0.90;0.90;;;-1.40;94.40;;;;;;5078702;28;20505;-79
2021/12/26 06:06:19;;;;;;;1.40;1.30;;;-1.30;94.20;;;;;;5078012;28;20024;-80
2021/12/26 06:08:45;;;;;;;1.85;1.30;;;-1.30;94.00;;;;;;5077988;28;20332;-80
2021/12/26 06:11:10;;;;;;;2.92;1.40;;;-1.20;93.90;;;;;;5078180;28;20037;-79
2021/12/26 06:13:36;;;;;;;2.70;1.63;;;-1.10;93.80;;;;;;5078156;28;20036;-80
2021/12/26 06:16:02;;;;;;;1.30;1.15;;;-1.10;93.60;;;;;;5078098;28;20032;-80
2021/12/26 06:18:28;;;;;;;2.25;1.60;;;-1.00;93.50;;;;;;5078765;28;20092;-80
2021/12/26 06:20:53;;;;;;;3.30;1.42;;;-1.00;93.30;;;;;;5078430;28;20448;-80
2021/12/26 06:23:19;;;;;;;2.88;1.42;;;-0.90;93.20;;;;;;5079569;28;20020;-80
2021/12/26 06:25:45;;;;;;;2.67;1.23;;;-0.90;93.10;;;;;;5083300;28;20410;-80
2021/12/26 06:28:11;;;;;;;2.75;1.50;;;-0.90;93.00;;;;;;5087420;28;20036;-80
2021/12/26 06:30:36;;;;;;;1.52;1.42;;;-0.80;92.90;;;;;;5092264;28;20039;-79
2021/12/26 06:33:02;;;;;;;1.95;1.23;;;-0.80;92.80;;;;;;5111552;28;20035;-80
2021/12/26 06:35:28;;;;;;;4.03;1.92;;;-0.70;92.80;;;;;;5117145;28;20050;-79
2021/12/26 06:37:54;;;;;;;2.75;1.30;;;-0.70;92.70;;;;;;5112145;28;20434;-80
2021/12/26 06:40:20;;;;;;;1.55;1.17;;;-0.70;92.60;;;;;;5082205;28;20418;-80
2021/12/26 06:42:48;;;;;;;2.45;1.50;;;-0.70;92.50;;;;;;5078983;28;20052;-80
2021/12/26 06:45:16;;;;;;;2.45;1.48;;;-0.70;92.40;;;;;;5077486;28;20107;-80
2021/12/26 06:47:46;;;;;;;1.83;1.00;;;-0.70;92.30;;;;;;5078301;28;20028;-80
2021/12/26 06:50:12;;;;;;;3.00;1.30;;;-0.70;92.10;;;;;;5077335;28;20028;-80
2021/12/26 06:52:38;;;;;;;2.80;1.60;;;-0.70;92.10;;;;;;5094823;28;20144;-80
2021/12/26 06:55:04;;;;;;;3.00;1.33;;;-0.70;92.00;;;;;;5095779;28;20545;-80
2021/12/26 06:57:30;;;;;;;2.28;1.35;;;-0.70;92.00;;;;;;5095011;28;20099;-80
2021/12/26 06:59:56;;;;;;;2.65;1.67;;;-0.70;91.90;;;;;;5076778;28;20152;-80
2021/12/26 07:02:22;;;;;;;1.63;1.13;;;-0.70;91.90;;;;;;5095456;28;20114;-80
2021/12/26 07:04:47;;;;;;;1.33;1.10;;;-0.60;92.00;;;;;;5077356;28;20024;-80
2021/12/26 07:07:13;;;;;;;5.85;1.52;;;-0.60;92.00;;;;;;5077013;28;20384;-80
2021/12/26 07:09:41;;;;;;;2.92;1.25;;;-0.60;92.00;;;;;;5094919;28;20104;-80
2021/12/26 07:12:07;;;;;;;1.60;1.23;;;-0.60;91.90;;;;;;5076433;28;20035;-80
2021/12/26 07:14:33;;;;;;;1.85;1.23;;;-0.60;91.90;;;;;;5076608;28;20438;-79
2021/12/26 07:16:59;;;;;;;3.42;1.75;;;-0.60;91.80;;;;;;5094490;28;20027;-80
2021/12/26 07:19:24;;;;;;;6.28;1.60;;;-0.60;91.70;;;;;;5094640;28;20028;-79
2021/12/26 07:21:50;;;;;;;2.80;1.30;;;-0.60;91.70;;;;;;5076676;28;20056;-80
2021/12/26 07:24:16;;;;;;;3.05;1.42;;;-0.60;91.60;;;;;;5095033;28;20016;-80
2021/12/26 07:26:41;;;;;;;2.45;1.45;;;-0.60;91.60;;;;;;5072860;28;20373;-80
2021/12/26 07:29:07;;;;;;;2.25;1.33;;;-0.60;91.50;;;;;;5074236;28;20099;-80
2021/12/26 07:31:33;;;;;;;3.35;1.45;;;-0.50;91.60;;;;;;5073438;28;20024;-80
2021/12/26 07:33:59;;;;;;;2.17;1.40;;;-0.50;91.60;;;;;;5073311;28;20450;-80
2021/12/26 07:36:25;;;;;;;3.00;1.42;;;-0.50;91.30;;;;;;5072880;28;20432;-80
2021/12/26 07:38:53;;;;;;;1.98;1.60;;;-0.50;91.40;;;;;;5073178;28;20031;-80
2021/12/26 07:41:19;;;;;;;1.80;1.20;;;-0.50;91.50;;;;;;5073387;28;20020;-79
2021/12/26 07:43:45;;;;;;;2.20;1.13;;;-0.50;91.50;;;;;;5073068;28;20522;-80
2021/12/26 07:46:11;;;;;;;1.50;1.20;;;-0.50;91.80;;;;;;5074727;28;20028;-80
2021/12/26 07:48:37;;;;;;;1.90;1.33;;;-0.50;91.60;;;;;;5074854;28;20043;-80
2021/12/26 07:51:05;;;;;;;1.40;1.30;;;-0.50;91.60;;;;;;5073052;28;20020;-81
2021/12/26 07:53:31;;;;;;;2.03;1.50;;;-0.50;91.60;;;;;;5072930;28;20024;-80
2021/12/26 07:55:56;;;;;;;1.73;1.05;;;-0.50;91.70;;;;;;5075123;28;20035;-80
2021/12/26 07:58:22;;;;;;;1.63;1.20;;;-0.50;91.70;;;;;;5074463;28;20036;-80
2021/12/26 08:00:48;;;;;;;1.75;1.00;;;-0.50;91.80;;;;;;5078159;28;20025;-81
2021/12/26 08:03:14;;;;;;;2.20;1.45;;;-0.50;91.80;;;;;;5083011;28;20128;-81
2021/12/26 08:05:39;;;;;;;3.08;1.23;;;-0.50;91.80;;;;;;5082717;28;20111;-80
2021/12/26 08:08:05;;;;;;;1.38;1.20;;;-0.50;91.80;;;;;;5078771;28;20027;-80
2021/12/26 08:10:31;;;;;;;1.85;1.38;;;-0.50;91.80;;;;;;5073774;28;20025;-79
2021/12/26 08:12:57;;;;;;;2.47;1.55;;;-0.60;91.70;;;;;;5075327;28;20074;-79
2021/12/26 08:15:23;;;;;;;3.42;1.40;;;-0.60;91.90;;;;;;5072777;28;20020;-79
2021/12/26 08:17:48;;;;;;;2.45;1.30;;;-0.60;91.90;;;;;;5072628;28;20078;-80
2021/12/26 08:20:14;;;;;;;2.50;1.30;;;-0.70;92.00;;;;;;5072441;28;20036;-80
2021/12/26 08:22:40;;;;;;;2.00;1.30;;;-0.70;92.00;;;;;;5072658;28;20094;-80
2021/12/26 08:25:06;;;;;;;2.20;1.40;;;-0.70;92.10;;;;;;5072101;28;20395;-80
2021/12/26 08:27:32;;;;;;;2.05;1.30;;;-0.70;92.00;;;;;;5073286;28;20028;-79
2021/12/26 08:29:59;;;;;;;2.20;1.40;;;-0.70;92.10;;;;;;5074471;28;20078;-80
2021/12/26 08:32:26;;;;;;;2.15;1.30;;;-0.70;92.10;;;;;;5075772;28;20024;-79
2021/12/26 08:34:52;;;;;;;2.63;1.42;;;-0.70;92.10;;;;;;5085982;28;20039;-80
2021/12/26 08:37:18;;;;;;;2.72;1.40;;;-0.70;92.10;;;;;;5085435;28;20029;-81
2021/12/26 08:39:44;;;;;;;2.95;1.60;;;-0.70;92.00;;;;;;5088190;28;20091;-79
2021/12/26 08:42:12;;;;;;;2.35;1.63;;;-0.70;91.90;;;;;;5084953;28;20017;-80
2021/12/26 08:44:39;;;;;;;2.83;1.38;;;-0.70;91.90;;;;;;5075180;28;20099;-79
2021/12/26 08:47:06;;;;;;;4.05;1.70;;;-0.70;92.00;;;;;;5073711;28;20490;-81
2021/12/26 08:49:32;;;;;;;5.00;1.50;;;-0.60;92.00;;;;;;5073092;28;20028;-82
2021/12/26 08:51:59;;;;;;;1.88;1.35;;;-0.60;91.90;;;;;;5072837;28;20029;-81
2021/12/26 08:54:26;;;;;;;3.17;2.00;;;-0.60;91.90;;;;;;5071838;28;20118;-80
2021/12/26 08:56:55;;;;;;;3.08;1.63;;;-0.60;92.00;;;;;;5075219;28;20037;-87
2021/12/26 08:59:24;;;;;;;2.63;1.70;;;-0.60;92.00;;;;;;5078611;28;20107;-85
2021/12/26 09:01:50;;;;;;;2.60;1.65;;;-0.60;91.90;;;;;;5074992;28;20075;-84
2021/12/26 09:04:16;;;;;;;2.15;1.67;;;-0.60;91.90;;;;;;5075532;28;20025;-85
2021/12/26 09:06:41;;;;;;;2.58;1.60;;;-0.60;91.90;;;;;;5073578;28;20029;-84
2021/12/26 09:09:08;;;;;;;3.30;1.75;;;-0.60;92.00;;;;;;5074611;28;20031;-86
2021/12/26 09:11:34;;;;;;;2.35;1.58;;;-0.60;92.00;;;;;;5074991;28;20031;-84
2021/12/26 09:14:00;;;;;;;2.88;1.50;;;-0.60;92.00;;;;;;5074409;28;20031;-83
2021/12/26 09:16:33;;;;;;;2.28;1.38;;;-0.60;92.00;;;;;;5076306;28;20394;-83
2021/12/26 09:18:59;;;;;;;2.95;1.83;;;-0.60;92.00;;;;;;5075879;28;20127;-84
2021/12/26 09:21:25;;;;;;;3.28;1.88;;;-0.60;92.00;;;;;;5075582;28;20109;-83
2021/12/26 09:23:50;;;;;;;2.42;1.65;;;-0.50;92.00;;;;;;5075032;28;20052;-81
2021/12/26 09:26:16;;;;;;;3.33;1.83;;;-0.50;92.00;;;;;;5092427;28;20054;-83
2021/12/26 09:28:41;;;;;;;3.25;1.60;;;-0.50;92.00;;;;;;5079100;28;20107;-79
2021/12/26 09:31:07;;;;;;;2.88;1.77;;;-0.50;91.90;;;;;;5079182;28;20056;-81
2021/12/26 09:33:33;;;;;;;2.80;1.70;;;-0.50;91.80;;;;;;5078381;28;20380;-82
2021/12/26 09:36:00;;;;;;;3.53;1.83;;;-0.50;91.70;;;;;;5096140;28;20077;-86
2021/12/26 09:38:26;;;;;;;3.40;1.63;;;-0.50;91.70;;;;;;5096445;28;20036;-79
2021/12/26 09:40:52;;;;;;;2.60;1.42;;;-0.40;91.70;;;;;;5078430;28;20028;-81
2021/12/26 09:43:18;;;;;;;3.13;1.85;;;-0.40;91.70;;;;;;5078346;28;20038;-80
2021/12/26 09:45:43;;;;;;;3.40;1.90;;;-0.40;91.70;;;;;;5078121;28;20016;-81
2021/12/26 09:48:09;;;;;;;5.95;2.30;;;-0.40;91.60;;;;;;5096331;28;20309;-80
2021/12/26 09:50:35;;;;;;;2.20;1.40;;;-0.30;91.60;;;;;;5078131;28;20115;-75
2021/12/26 09:53:01;;;;;;;2.78;1.75;;;-0.30;91.60;;;;;;5096242;28;20022;-82
2021/12/26 09:55:28;;;;;;;3.63;1.70;;;-0.30;91.50;;;;;;5078317;28;20412;-81
2021/12/26 09:57:54;;;;;;;3.15;1.75;;;-0.30;91.60;;;;;;5096391;28;20053;-82
2021/12/26 10:00:25;;;;;;;5.15;2.10;;;-0.30;91.50;;;;;;5096075;28;20099;-83
2021/12/26 10:03:13;;;;;;;4.80;1.83;;;-0.20;91.50;;;;;;5097130;28;20466;-84
2021/12/26 10:06:14;;;;;;;3.83;2.25;;;-0.20;91.60;;;;;;5079060;28;20024;-83
2021/12/26 10:09:03;;;;;;;6.45;2.35;;;-0.10;91.60;;;;;;5098199;28;20099;-83
2021/12/26 10:11:32;;;;;;;3.25;1.55;;;-0.20;91.50;;;;;;5096970;28;20020;-80
2021/12/26 10:14:06;;;;;;;3.13;1.67;;;-0.20;91.40;;;;;;5095993;28;20024;-84
2021/12/26 10:16:44;;;;;;;2.10;1.38;;;-0.10;91.50;;;;;;5079353;28;20020;-84
2021/12/26 10:19:11;;;;;;;4.25;1.85;;;-0.10;91.50;;;;;;5078031;28;20028;-82
2021/12/26 10:21:52;;;;;;;2.92;2.10;;;-0.10;91.50;;;;;;5096287;28;20440;-80
2021/12/26 10:24:24;;;;;;;4.77;2.37;;;0.00;91.50;;;;;;5078440;28;20087;-83
2021/12/26 10:26:54;;;;;;;3.55;1.95;;;0.00;91.40;;;;;;5076838;28;20301;-83
2021/12/26 10:29:30;;;;;;;2.33;1.77;;;0.10;91.40;;;;;;5078542;28;20023;-83
2021/12/26 10:32:04;;;;;;;2.35;1.65;;;0.20;91.40;;;;;;5078716;28;20016;-82
2021/12/26 10:34:34;;;;;;;2.13;1.52;;;0.20;91.40;;;;;;5079563;28;20084;-83
2021/12/26 10:37:02;;;;;;;3.30;1.80;;;0.20;91.40;;;;;;5103262;28;20028;-84
2021/12/26 10:39:31;;;;;;;3.33;2.13;;;0.20;91.40;;;;;;5096097;28;20444;-80
2021/12/26 10:42:02;;;;;;;3.63;1.95;;;0.20;91.40;;;;;;5095219;28;20024;-82
2021/12/26 10:44:44;;;;;;;7.03;2.28;;;0.20;91.40;;;;;;5096673;28;20091;-81
2021/12/26 10:47:14;;;;;;;2.78;1.60;;;0.30;91.40;;;;;;5090828;28;20020;-83
2021/12/26 10:50:11;;;;;;;4.07;2.00;;;0.30;91.40;;;;;;5080189;28;20020;-83
2021/12/26 10:52:40;;;;;;;3.85;2.08;;;0.40;91.40;;;;;;5077783;28;20024;-83
2021/12/26 10:55:12;;;;;;;3.58;1.92;;;0.40;91.30;;;;;;5095873;28;20024;-83
2021/12/26 10:57:41;;;;;;;2.95;2.03;;;0.40;91.30;;;;;;5095460;28;20080;-83
2021/12/26 11:00:18;;;;;;;5.13;2.28;;;0.50;91.30;;;;;;5095388;28;20081;-82
2021/12/26 11:02:51;;;;;;;4.40;2.35;;;0.60;91.40;;;;;;5077278;28;20028;-83
2021/12/26 11:05:20;;;;;;;6.22;1.85;;;0.70;91.40;;;;;;5077191;28;20495;-81
2021/12/26 11:07:58;;;;;;;3.00;2.05;;;0.80;91.30;;;;;;5076839;28;20023;-83
2021/12/26 11:10:28;;;;;;;5.85;2.25;;;0.80;91.20;;;;;;5078048;28;20101;-83
2021/12/26 11:13:00;;;;;;;5.00;2.33;;;0.90;91.20;;;;;;5078326;28;20020;-82
2021/12/26 11:15:33;;;;;;;3.45;2.03;;;0.90;91.10;;;;;;5078798;28;20510;-84
2021/12/26 11:18:05;;;;;;;4.35;2.13;;;1.00;91.10;;;;;;5077172;28;20035;-83
2021/12/26 11:20:41;;;;;;;4.65;2.60;;;1.00;91.10;;;;;;5077107;28;20071;-82
2021/12/26 11:23:16;;;;;;;3.83;2.28;;;1.10;91.20;;;;;;5077539;28;20020;-82
2021/12/26 11:26:15;;;;;;;3.92;2.13;;;1.20;91.10;;;;;;5076909;28;20051;-82
2021/12/26 11:28:47;;;;;;;3.13;1.83;;;1.30;91.20;;;;;;5095774;28;20020;-83
2021/12/26 11:31:22;;;;;;;2.70;1.55;;;1.40;91.20;;;;;;5094815;28;20024;-81
2021/12/26 11:33:54;;;;;;;4.32;1.92;;;1.50;91.30;;;;;;5077696;28;20027;-82
2021/12/26 11:36:22;;;;;;;3.55;1.90;;;1.60;91.30;;;;;;5077064;28;20031;-82
2021/12/26 11:38:49;;;;;;;7.57;2.58;;;1.60;91.20;;;;;;5095969;28;20048;-81
2021/12/26 11:41:45;;;;;;;4.53;1.98;;;1.70;91.20;;;;;;5077613;28;20030;-81
2021/12/26 11:44:16;;;;;;;2.85;2.08;;;1.80;91.30;;;;;;5099918;28;20073;-82
2021/12/26 11:47:09;;;;;;;3.78;1.65;;;1.80;91.20;;;;;;5079274;28;20031;-82
2021/12/26 11:50:04;;;;;;;3.97;1.92;;;1.80;91.20;;;;;;5095195;28;20026;-82
2021/12/26 11:53:00;;;;;;;5.03;2.70;;;1.80;91.20;;;;;;5078686;28;20074;-82
2021/12/26 11:55:50;;;;;;;3.97;2.25;;;1.80;91.20;;;;;;5078594;28;20028;-80
2021/12/26 11:58:34;;;;;;;4.05;2.60;;;1.80;91.30;;;;;;5078421;28;20046;-82
2021/12/26 12:01:01;;;;;;;5.35;4.07;;;1.80;91.40;;;;;;5077894;28;20046;-81
2021/12/26 12:03:30;;;;;;;4.72;2.75;;;1.80;91.40;;;;;;5078327;28;20024;-81
2021/12/26 12:05:57;;;;;;;4.80;2.58;;;1.80;91.50;;;;;;5076292;28;20456;-80
2021/12/26 12:08:23;;;;;;;4.85;2.50;;;1.90;91.50;;;;;;5076401;28;20028;-79
2021/12/26 12:10:57;;;;;;;3.35;2.22;;;1.90;91.50;;;;;;5075399;28;20030;-80
2021/12/26 12:13:26;;;;;;;4.28;2.33;;;1.90;91.50;;;;;;5076134;28;20106;-80
2021/12/26 12:15:57;;;;;;;5.32;2.40;;;1.90;91.50;;;;;;5075387;28;20097;-81
2021/12/26 12:18:28;;;;;;;5.15;2.83;;;1.90;91.60;;;;;;5093642;28;20467;-79
2021/12/26 12:21:13;;;;;;;4.32;2.38;;;1.80;91.60;;;;;;5094430;28;20026;-80
2021/12/26 12:23:58;;;;;;;3.55;2.00;;;1.80;91.60;;;;;;5075475;28;20024;-79
2021/12/26 12:26:57;;;;;;;4.32;2.10;;;1.70;91.60;;;;;;5093395;28;20052;-78
2021/12/26 12:29:29;;;;;;;7.90;2.80;;;1.70;91.80;;;;;;5075750;28;20114;-79
2021/12/26 12:32:07;;;;;;;5.25;2.35;;;1.60;91.80;;;;;;5075141;28;20464;-79
2021/12/26 12:34:53;;;;;;;5.60;2.70;;;1.50;91.80;;;;;;5074957;28;20035;-80
2021/12/26 12:37:28;;;;;;;5.97;2.80;;;1.50;91.90;;;;;;5093562;28;20028;-79
2021/12/26 12:40:13;;;;;;;6.05;2.83;;;1.50;92.00;;;;;;5076116;28;20418;-79
2021/12/26 12:42:43;;;;;;;4.97;2.85;;;1.50;92.10;;;;;;5101594;28;20083;-78
2021/12/26 12:45:09;;;;;;;6.40;2.40;;;1.50;92.10;;;;;;5087678;28;20030;-80
2021/12/26 12:47:34;;;;;;;4.18;2.85;;;1.50;92.10;;;;;;5086336;28;20483;-79
2021/12/26 12:50:03;;;;;;;4.50;2.47;;;1.60;92.10;;;;;;5092690;28;20028;-76
2021/12/26 12:52:39;;;;;;;4.03;2.60;;;1.70;92.00;;;;;;5086063;28;20137;-79
2021/12/26 12:55:15;;;;;;;5.00;2.40;;;1.80;92.00;;;;;;5097788;28;20117;-80
2021/12/26 12:57:48;;;;;;;4.85;2.85;;;1.90;91.90;;;;;;5079050;28;20048;-79
2021/12/26 13:00:26;;;;;;;4.38;2.50;;;2.00;91.70;;;;;;5079284;28;20444;-79